sensor_id;sensor_type;location;lat;lon;timestamp;P1;durP1;ratioP1;P2;durP2;ratioP2
55800;SDS011;41730;51.960;20.158;2023-04-08T00:00:09;26.60;;;14.30;;
55800;SDS011;41730;51.960;20.158;2023-04-08T00:02:40;28.00;;;15.20;;
55800;SDS011;41730;51.960;20.158;2023-04-08T00:05:09;25.00;;;13.90;;
55800;SDS011;41730;51.960;20.158;2023-04-08T00:07:38;27.40;;;14.10;;
55800;SDS011;41730;51.960;20.158;2023-04-08T00:10:08;26.70;;;13.90;;
55800;SDS011;41730;51.960;20.158;2023-04-08T00:12:37;23.70;;;12.70;;
55800;SDS011;41730;51.960;20.158;2023-04-08T00:15:07;23.10;;;12.40;;
55800;SDS011;41730;51.960;20.158;2023-04-08T00:17:38;25.30;;;13.90;;
55800;SDS011;41730;51.960;20.158;2023-04-08T00:20:08;24.00;;;13.10;;
55800;SDS011;41730;51.960;20.158;2023-04-08T00:22:37;24.40;;;12.30;;
55800;SDS011;41730;51.960;20.158;2023-04-08T00:25:07;23.40;;;12.20;;
55800;SDS011;41730;51.960;20.158;2023-04-08T00:27:36;20.30;;;11.20;;
55800;SDS011;41730;51.960;20.158;2023-04-08T00:30:06;23.50;;;13.00;;
55800;SDS011;41730;51.960;20.158;2023-04-08T00:32:36;23.00;;;12.80;;
55800;SDS011;41730;51.960;20.158;2023-04-08T00:35:06;26.70;;;13.50;;
55800;SDS011;41730;51.960;20.158;2023-04-08T00:37:35;21.20;;;12.20;;
55800;SDS011;41730;51.960;20.158;2023-04-08T00:40:05;24.50;;;13.30;;
55800;SDS011;41730;51.960;20.158;2023-04-08T00:42:35;23.70;;;13.00;;
55800;SDS011;41730;51.960;20.158;2023-04-08T00:45:05;27.30;;;14.30;;
55800;SDS011;41730;51.960;20.158;2023-04-08T00:47:36;25.30;;;13.40;;
55800;SDS011;41730;51.960;20.158;2023-04-08T00:50:07;24.50;;;13.30;;
55800;SDS011;41730;51.960;20.158;2023-04-08T00:52:37;23.00;;;12.00;;
55800;SDS011;41730;51.960;20.158;2023-04-08T00:55:07;25.70;;;12.70;;
55800;SDS011;41730;51.960;20.158;2023-04-08T00:57:37;24.20;;;13.20;;
55800;SDS011;41730;51.960;20.158;2023-04-08T01:00:08;23.60;;;12.50;;
55800;SDS011;41730;51.960;20.158;2023-04-08T01:02:41;26.60;;;13.50;;
55800;SDS011;41730;51.960;20.158;2023-04-08T01:05:19;27.30;;;13.30;;
55800;SDS011;41730;51.960;20.158;2023-04-08T01:07:56;24.80;;;13.10;;
55800;SDS011;41730;51.960;20.158;2023-04-08T01:10:29;30.40;;;14.80;;
55800;SDS011;41730;51.960;20.158;2023-04-08T01:13:03;26.20;;;14.30;;
55800;SDS011;41730;51.960;20.158;2023-04-08T01:15:35;26.10;;;13.60;;
55800;SDS011;41730;51.960;20.158;2023-04-08T01:18:08;22.60;;;12.60;;
55800;SDS011;41730;51.960;20.158;2023-04-08T01:20:39;22.70;;;11.90;;
55800;SDS011;41730;51.960;20.158;2023-04-08T01:23:12;21.40;;;12.00;;
55800;SDS011;41730;51.960;20.158;2023-04-08T01:25:49;21.30;;;12.60;;
55800;SDS011;41730;51.960;20.158;2023-04-08T01:28:19;22.30;;;12.20;;
55800;SDS011;41730;51.960;20.158;2023-04-08T01:30:50;23.00;;;12.10;;
55800;SDS011;41730;51.960;20.158;2023-04-08T01:33:22;24.50;;;12.20;;
55800;SDS011;41730;51.960;20.158;2023-04-08T01:35:52;21.00;;;11.80;;
55800;SDS011;41730;51.960;20.158;2023-04-08T01:38:23;18.50;;;10.60;;
55800;SDS011;41730;51.960;20.158;2023-04-08T01:40:52;19.90;;;10.40;;
55800;SDS011;41730;51.960;20.158;2023-04-08T01:43:23;22.40;;;11.60;;
55800;SDS011;41730;51.960;20.158;2023-04-08T01:45:54;17.90;;;10.90;;
55800;SDS011;41730;51.960;20.158;2023-04-08T01:48:25;19.10;;;10.80;;
55800;SDS011;41730;51.960;20.158;2023-04-08T01:50:55;21.20;;;12.00;;
55800;SDS011;41730;51.960;20.158;2023-04-08T01:53:26;21.10;;;11.70;;
55800;SDS011;41730;51.960;20.158;2023-04-08T01:55:56;21.70;;;11.80;;
55800;SDS011;41730;51.960;20.158;2023-04-08T01:58:35;17.70;;;10.20;;
55800;SDS011;41730;51.960;20.158;2023-04-08T02:01:09;19.20;;;10.60;;
55800;SDS011;41730;51.960;20.158;2023-04-08T02:03:40;18.00;;;9.80;;
55800;SDS011;41730;51.960;20.158;2023-04-08T02:06:11;18.20;;;10.60;;
55800;SDS011;41730;51.960;20.158;2023-04-08T02:08:40;19.00;;;9.80;;
55800;SDS011;41730;51.960;20.158;2023-04-08T02:11:09;17.50;;;10.30;;
55800;SDS011;41730;51.960;20.158;2023-04-08T02:13:38;19.60;;;10.90;;
55800;SDS011;41730;51.960;20.158;2023-04-08T02:16:09;20.60;;;11.70;;
55800;SDS011;41730;51.960;20.158;2023-04-08T02:18:48;19.20;;;12.10;;
55800;SDS011;41730;51.960;20.158;2023-04-08T02:21:25;18.80;;;11.00;;
55800;SDS011;41730;51.960;20.158;2023-04-08T02:24:01;18.70;;;11.10;;
55800;SDS011;41730;51.960;20.158;2023-04-08T02:26:35;19.00;;;11.20;;
55800;SDS011;41730;51.960;20.158;2023-04-08T02:29:05;20.80;;;11.90;;
55800;SDS011;41730;51.960;20.158;2023-04-08T02:31:40;21.80;;;11.40;;
55800;SDS011;41730;51.960;20.158;2023-04-08T02:34:10;17.70;;;11.20;;
55800;SDS011;41730;51.960;20.158;2023-04-08T02:36:40;26.30;;;13.60;;
55800;SDS011;41730;51.960;20.158;2023-04-08T02:39:11;23.90;;;13.50;;
55800;SDS011;41730;51.960;20.158;2023-04-08T02:41:40;24.90;;;13.50;;
55800;SDS011;41730;51.960;20.158;2023-04-08T02:44:09;22.70;;;12.80;;
55800;SDS011;41730;51.960;20.158;2023-04-08T02:46:38;21.80;;;11.60;;
55800;SDS011;41730;51.960;20.158;2023-04-08T02:49:07;22.20;;;12.70;;
55800;SDS011;41730;51.960;20.158;2023-04-08T02:51:36;25.80;;;13.30;;
55800;SDS011;41730;51.960;20.158;2023-04-08T02:54:06;24.90;;;12.60;;
55800;SDS011;41730;51.960;20.158;2023-04-08T02:56:35;23.70;;;13.70;;
55800;SDS011;41730;51.960;20.158;2023-04-08T02:59:04;22.40;;;12.80;;
55800;SDS011;41730;51.960;20.158;2023-04-08T03:01:33;23.40;;;13.40;;
55800;SDS011;41730;51.960;20.158;2023-04-08T03:04:02;23.60;;;12.80;;
55800;SDS011;41730;51.960;20.158;2023-04-08T03:06:32;22.00;;;11.80;;
55800;SDS011;41730;51.960;20.158;2023-04-08T03:09:00;19.30;;;11.50;;
55800;SDS011;41730;51.960;20.158;2023-04-08T03:11:31;21.50;;;11.80;;
55800;SDS011;41730;51.960;20.158;2023-04-08T03:14:00;21.20;;;11.50;;
55800;SDS011;41730;51.960;20.158;2023-04-08T03:16:29;18.90;;;11.90;;
55800;SDS011;41730;51.960;20.158;2023-04-08T03:18:58;19.30;;;11.60;;
55800;SDS011;41730;51.960;20.158;2023-04-08T03:21:27;21.00;;;12.20;;
55800;SDS011;41730;51.960;20.158;2023-04-08T03:23:57;20.50;;;12.90;;
55800;SDS011;41730;51.960;20.158;2023-04-08T03:26:27;20.60;;;12.70;;
55800;SDS011;41730;51.960;20.158;2023-04-08T03:28:56;21.70;;;13.10;;
55800;SDS011;41730;51.960;20.158;2023-04-08T03:31:26;20.10;;;12.70;;
55800;SDS011;41730;51.960;20.158;2023-04-08T03:33:58;24.10;;;13.50;;
55800;SDS011;41730;51.960;20.158;2023-04-08T03:36:39;21.30;;;13.10;;
55800;SDS011;41730;51.960;20.158;2023-04-08T03:39:17;22.30;;;13.20;;
55800;SDS011;41730;51.960;20.158;2023-04-08T03:41:56;22.10;;;12.10;;
55800;SDS011;41730;51.960;20.158;2023-04-08T03:44:35;22.80;;;12.80;;
55800;SDS011;41730;51.960;20.158;2023-04-08T03:47:12;22.50;;;12.40;;
55800;SDS011;41730;51.960;20.158;2023-04-08T03:49:41;26.20;;;13.70;;
55800;SDS011;41730;51.960;20.158;2023-04-08T03:52:10;23.60;;;12.90;;
55800;SDS011;41730;51.960;20.158;2023-04-08T03:54:38;25.30;;;13.70;;
55800;SDS011;41730;51.960;20.158;2023-04-08T03:57:07;27.10;;;13.60;;
55800;SDS011;41730;51.960;20.158;2023-04-08T03:59:41;22.90;;;12.60;;
55800;SDS011;41730;51.960;20.158;2023-04-08T04:02:10;21.90;;;12.60;;
55800;SDS011;41730;51.960;20.158;2023-04-08T04:04:39;22.30;;;13.30;;
55800;SDS011;41730;51.960;20.158;2023-04-08T04:07:08;23.20;;;12.40;;
55800;SDS011;41730;51.960;20.158;2023-04-08T04:09:37;25.10;;;13.10;;
55800;SDS011;41730;51.960;20.158;2023-04-08T04:12:06;25.40;;;13.40;;
55800;SDS011;41730;51.960;20.158;2023-04-08T04:14:35;25.60;;;13.30;;
55800;SDS011;41730;51.960;20.158;2023-04-08T04:17:04;26.60;;;13.30;;
55800;SDS011;41730;51.960;20.158;2023-04-08T04:19:33;23.50;;;13.00;;
55800;SDS011;41730;51.960;20.158;2023-04-08T04:22:02;22.90;;;12.10;;
55800;SDS011;41730;51.960;20.158;2023-04-08T04:24:31;21.80;;;12.30;;
55800;SDS011;41730;51.960;20.158;2023-04-08T04:27:00;25.80;;;13.70;;
55800;SDS011;41730;51.960;20.158;2023-04-08T04:29:30;27.90;;;14.20;;
55800;SDS011;41730;51.960;20.158;2023-04-08T04:31:59;26.70;;;14.00;;
55800;SDS011;41730;51.960;20.158;2023-04-08T04:34:28;29.80;;;15.80;;
55800;SDS011;41730;51.960;20.158;2023-04-08T04:36:57;26.10;;;14.70;;
55800;SDS011;41730;51.960;20.158;2023-04-08T04:39:26;24.10;;;13.50;;
55800;SDS011;41730;51.960;20.158;2023-04-08T04:41:55;25.40;;;13.10;;
55800;SDS011;41730;51.960;20.158;2023-04-08T04:44:24;23.00;;;13.30;;
55800;SDS011;41730;51.960;20.158;2023-04-08T04:46:53;20.40;;;12.10;;
55800;SDS011;41730;51.960;20.158;2023-04-08T04:49:22;19.70;;;11.40;;
55800;SDS011;41730;51.960;20.158;2023-04-08T04:51:51;17.70;;;11.30;;
55800;SDS011;41730;51.960;20.158;2023-04-08T04:54:21;17.10;;;11.00;;
55800;SDS011;41730;51.960;20.158;2023-04-08T04:56:50;20.50;;;11.30;;
55800;SDS011;41730;51.960;20.158;2023-04-08T04:59:19;18.00;;;10.70;;
55800;SDS011;41730;51.960;20.158;2023-04-08T05:01:48;17.50;;;11.20;;
55800;SDS011;41730;51.960;20.158;2023-04-08T05:04:17;19.00;;;10.50;;
55800;SDS011;41730;51.960;20.158;2023-04-08T05:06:46;20.50;;;11.30;;
55800;SDS011;41730;51.960;20.158;2023-04-08T05:09:15;19.70;;;11.10;;
55800;SDS011;41730;51.960;20.158;2023-04-08T05:11:44;19.00;;;10.90;;
55800;SDS011;41730;51.960;20.158;2023-04-08T05:14:13;18.90;;;11.30;;
55800;SDS011;41730;51.960;20.158;2023-04-08T05:16:42;18.30;;;10.90;;
55800;SDS011;41730;51.960;20.158;2023-04-08T05:19:11;19.70;;;11.40;;
55800;SDS011;41730;51.960;20.158;2023-04-08T05:21:40;17.20;;;10.90;;
55800;SDS011;41730;51.960;20.158;2023-04-08T05:24:09;16.70;;;11.10;;
55800;SDS011;41730;51.960;20.158;2023-04-08T05:26:38;18.30;;;9.90;;
55800;SDS011;41730;51.960;20.158;2023-04-08T05:29:07;16.30;;;11.30;;
55800;SDS011;41730;51.960;20.158;2023-04-08T05:31:36;18.20;;;10.90;;
55800;SDS011;41730;51.960;20.158;2023-04-08T05:34:05;18.10;;;10.80;;
55800;SDS011;41730;51.960;20.158;2023-04-08T05:36:34;17.90;;;10.40;;
55800;SDS011;41730;51.960;20.158;2023-04-08T05:39:03;17.30;;;10.70;;
55800;SDS011;41730;51.960;20.158;2023-04-08T05:41:32;21.00;;;11.00;;
55800;SDS011;41730;51.960;20.158;2023-04-08T05:44:01;18.40;;;11.70;;
55800;SDS011;41730;51.960;20.158;2023-04-08T05:46:30;18.90;;;10.30;;
55800;SDS011;41730;51.960;20.158;2023-04-08T05:48:59;16.20;;;10.40;;
55800;SDS011;41730;51.960;20.158;2023-04-08T05:51:28;17.80;;;10.70;;
55800;SDS011;41730;51.960;20.158;2023-04-08T05:53:57;18.20;;;10.20;;
55800;SDS011;41730;51.960;20.158;2023-04-08T05:56:26;14.40;;;9.70;;
55800;SDS011;41730;51.960;20.158;2023-04-08T05:58:55;15.60;;;9.60;;
55800;SDS011;41730;51.960;20.158;2023-04-08T06:01:25;15.80;;;10.10;;
55800;SDS011;41730;51.960;20.158;2023-04-08T06:03:54;19.10;;;10.30;;
55800;SDS011;41730;51.960;20.158;2023-04-08T06:06:24;14.10;;;9.80;;
55800;SDS011;41730;51.960;20.158;2023-04-08T06:08:52;16.30;;;10.30;;
55800;SDS011;41730;51.960;20.158;2023-04-08T06:11:21;16.40;;;11.20;;
55800;SDS011;41730;51.960;20.158;2023-04-08T06:13:50;19.20;;;12.40;;
55800;SDS011;41730;51.960;20.158;2023-04-08T06:16:20;18.90;;;12.20;;
55800;SDS011;41730;51.960;20.158;2023-04-08T06:18:49;18.90;;;11.80;;
55800;SDS011;41730;51.960;20.158;2023-04-08T06:21:19;16.30;;;11.30;;
55800;SDS011;41730;51.960;20.158;2023-04-08T06:23:49;15.60;;;10.10;;
55800;SDS011;41730;51.960;20.158;2023-04-08T06:26:21;18.40;;;11.80;;
55800;SDS011;41730;51.960;20.158;2023-04-08T06:28:51;16.40;;;10.60;;
55800;SDS011;41730;51.960;20.158;2023-04-08T06:31:19;16.60;;;10.30;;
55800;SDS011;41730;51.960;20.158;2023-04-08T06:33:48;16.00;;;10.80;;
55800;SDS011;41730;51.960;20.158;2023-04-08T06:36:18;14.00;;;9.40;;
55800;SDS011;41730;51.960;20.158;2023-04-08T06:38:47;14.60;;;9.50;;
55800;SDS011;41730;51.960;20.158;2023-04-08T06:41:16;17.10;;;9.90;;
55800;SDS011;41730;51.960;20.158;2023-04-08T06:43:46;16.50;;;9.50;;
55800;SDS011;41730;51.960;20.158;2023-04-08T06:46:15;16.80;;;9.80;;
55800;SDS011;41730;51.960;20.158;2023-04-08T06:48:45;14.40;;;9.00;;
55800;SDS011;41730;51.960;20.158;2023-04-08T06:51:16;14.90;;;8.90;;
55800;SDS011;41730;51.960;20.158;2023-04-08T06:53:45;12.80;;;8.50;;
55800;SDS011;41730;51.960;20.158;2023-04-08T06:56:15;15.20;;;9.30;;
55800;SDS011;41730;51.960;20.158;2023-04-08T06:58:45;15.60;;;8.50;;
55800;SDS011;41730;51.960;20.158;2023-04-08T07:03:51;15.40;;;9.60;;
55800;SDS011;41730;51.960;20.158;2023-04-08T07:06:23;13.60;;;9.20;;
55800;SDS011;41730;51.960;20.158;2023-04-08T07:08:52;15.40;;;9.80;;
55800;SDS011;41730;51.960;20.158;2023-04-08T07:11:22;16.80;;;10.30;;
55800;SDS011;41730;51.960;20.158;2023-04-08T07:13:55;14.60;;;9.20;;
55800;SDS011;41730;51.960;20.158;2023-04-08T07:16:24;13.30;;;9.20;;
55800;SDS011;41730;51.960;20.158;2023-04-08T07:18:54;13.70;;;8.60;;
55800;SDS011;41730;51.960;20.158;2023-04-08T07:21:23;13.00;;;8.40;;
55800;SDS011;41730;51.960;20.158;2023-04-08T07:23:53;14.20;;;9.00;;
55800;SDS011;41730;51.960;20.158;2023-04-08T07:26:25;11.90;;;8.70;;
55800;SDS011;41730;51.960;20.158;2023-04-08T07:28:57;12.20;;;8.10;;
55800;SDS011;41730;51.960;20.158;2023-04-08T07:31:26;13.90;;;8.10;;
55800;SDS011;41730;51.960;20.158;2023-04-08T07:33:56;12.80;;;8.30;;
55800;SDS011;41730;51.960;20.158;2023-04-08T07:36:25;10.20;;;7.70;;
55800;SDS011;41730;51.960;20.158;2023-04-08T07:38:57;11.60;;;7.70;;
55800;SDS011;41730;51.960;20.158;2023-04-08T07:41:28;12.20;;;8.70;;
55800;SDS011;41730;51.960;20.158;2023-04-08T07:44:26;11.30;;;8.10;;
55800;SDS011;41730;51.960;20.158;2023-04-08T07:50:31;13.10;;;8.60;;
55800;SDS011;41730;51.960;20.158;2023-04-08T07:53:39;12.10;;;7.90;;
55800;SDS011;41730;51.960;20.158;2023-04-08T07:56:15;13.30;;;8.50;;
55800;SDS011;41730;51.960;20.158;2023-04-08T07:58:45;11.90;;;7.90;;
55800;SDS011;41730;51.960;20.158;2023-04-08T08:01:20;10.90;;;7.60;;
55800;SDS011;41730;51.960;20.158;2023-04-08T08:03:50;10.90;;;8.00;;
55800;SDS011;41730;51.960;20.158;2023-04-08T08:06:22;12.70;;;7.80;;
55800;SDS011;41730;51.960;20.158;2023-04-08T08:09:05;11.00;;;7.60;;
55800;SDS011;41730;51.960;20.158;2023-04-08T08:11:35;10.80;;;6.90;;
55800;SDS011;41730;51.960;20.158;2023-04-08T08:14:04;10.10;;;6.80;;
55800;SDS011;41730;51.960;20.158;2023-04-08T08:16:34;11.40;;;6.90;;
55800;SDS011;41730;51.960;20.158;2023-04-08T08:19:04;9.20;;;6.80;;
55800;SDS011;41730;51.960;20.158;2023-04-08T08:21:38;11.20;;;7.60;;
55800;SDS011;41730;51.960;20.158;2023-04-08T08:24:14;11.60;;;7.40;;
55800;SDS011;41730;51.960;20.158;2023-04-08T08:26:45;10.30;;;7.30;;
55800;SDS011;41730;51.960;20.158;2023-04-08T08:29:15;10.50;;;7.10;;
55800;SDS011;41730;51.960;20.158;2023-04-08T08:31:44;12.70;;;7.00;;
55800;SDS011;41730;51.960;20.158;2023-04-08T08:34:14;10.20;;;7.40;;
55800;SDS011;41730;51.960;20.158;2023-04-08T08:36:53;12.50;;;7.30;;
55800;SDS011;41730;51.960;20.158;2023-04-08T08:39:23;11.20;;;7.20;;
55800;SDS011;41730;51.960;20.158;2023-04-08T08:41:52;13.80;;;7.80;;
55800;SDS011;41730;51.960;20.158;2023-04-08T08:44:25;9.90;;;6.90;;
55800;SDS011;41730;51.960;20.158;2023-04-08T08:46:57;10.90;;;7.30;;
55800;SDS011;41730;51.960;20.158;2023-04-08T08:49:27;10.80;;;7.40;;
55800;SDS011;41730;51.960;20.158;2023-04-08T08:51:56;10.50;;;7.30;;
55800;SDS011;41730;51.960;20.158;2023-04-08T08:54:27;11.80;;;7.30;;
55800;SDS011;41730;51.960;20.158;2023-04-08T08:56:57;10.50;;;7.80;;
55800;SDS011;41730;51.960;20.158;2023-04-08T08:59:26;9.80;;;6.50;;
55800;SDS011;41730;51.960;20.158;2023-04-08T09:01:56;10.20;;;7.10;;
55800;SDS011;41730;51.960;20.158;2023-04-08T09:04:25;9.50;;;6.60;;
55800;SDS011;41730;51.960;20.158;2023-04-08T09:07:07;10.80;;;7.20;;
55800;SDS011;41730;51.960;20.158;2023-04-08T09:09:48;10.40;;;7.10;;
55800;SDS011;41730;51.960;20.158;2023-04-08T09:12:21;9.30;;;7.20;;
55800;SDS011;41730;51.960;20.158;2023-04-08T09:15:06;10.40;;;7.30;;
55800;SDS011;41730;51.960;20.158;2023-04-08T09:17:36;9.50;;;6.70;;
55800;SDS011;41730;51.960;20.158;2023-04-08T09:20:08;12.20;;;7.70;;
55800;SDS011;41730;51.960;20.158;2023-04-08T09:25:34;10.10;;;7.00;;
55800;SDS011;41730;51.960;20.158;2023-04-08T09:28:04;12.00;;;7.00;;
55800;SDS011;41730;51.960;20.158;2023-04-08T09:30:45;12.20;;;6.70;;
55800;SDS011;41730;51.960;20.158;2023-04-08T09:33:14;10.60;;;7.30;;
55800;SDS011;41730;51.960;20.158;2023-04-08T09:35:43;11.70;;;7.30;;
55800;SDS011;41730;51.960;20.158;2023-04-08T09:38:13;10.20;;;6.80;;
55800;SDS011;41730;51.960;20.158;2023-04-08T09:40:42;9.80;;;7.00;;
55800;SDS011;41730;51.960;20.158;2023-04-08T09:43:12;9.50;;;6.70;;
55800;SDS011;41730;51.960;20.158;2023-04-08T09:45:45;10.80;;;7.00;;
55800;SDS011;41730;51.960;20.158;2023-04-08T09:48:16;7.90;;;5.50;;
55800;SDS011;41730;51.960;20.158;2023-04-08T09:50:50;9.70;;;6.90;;
55800;SDS011;41730;51.960;20.158;2023-04-08T09:53:25;10.40;;;6.90;;
55800;SDS011;41730;51.960;20.158;2023-04-08T09:56:01;9.70;;;7.00;;
55800;SDS011;41730;51.960;20.158;2023-04-08T09:58:36;8.90;;;6.50;;
55800;SDS011;41730;51.960;20.158;2023-04-08T10:01:09;11.30;;;7.70;;
55800;SDS011;41730;51.960;20.158;2023-04-08T10:03:44;10.50;;;6.70;;
55800;SDS011;41730;51.960;20.158;2023-04-08T10:06:17;9.70;;;7.60;;
55800;SDS011;41730;51.960;20.158;2023-04-08T10:08:48;11.10;;;7.80;;
55800;SDS011;41730;51.960;20.158;2023-04-08T10:11:17;9.60;;;7.00;;
55800;SDS011;41730;51.960;20.158;2023-04-08T10:13:47;9.30;;;6.70;;
55800;SDS011;41730;51.960;20.158;2023-04-08T10:16:20;10.60;;;7.20;;
55800;SDS011;41730;51.960;20.158;2023-04-08T10:18:52;10.20;;;7.70;;
55800;SDS011;41730;51.960;20.158;2023-04-08T10:24:16;9.40;;;6.80;;
55800;SDS011;41730;51.960;20.158;2023-04-08T10:26:50;10.60;;;7.20;;
55800;SDS011;41730;51.960;20.158;2023-04-08T10:32:27;10.90;;;8.00;;
55800;SDS011;41730;51.960;20.158;2023-04-08T10:34:56;10.60;;;7.40;;
55800;SDS011;41730;51.960;20.158;2023-04-08T10:37:25;10.10;;;7.30;;
55800;SDS011;41730;51.960;20.158;2023-04-08T10:39:55;9.20;;;6.50;;
55800;SDS011;41730;51.960;20.158;2023-04-08T10:42:27;10.40;;;7.10;;
55800;SDS011;41730;51.960;20.158;2023-04-08T10:45:00;9.80;;;6.70;;
55800;SDS011;41730;51.960;20.158;2023-04-08T10:47:30;12.30;;;7.20;;
55800;SDS011;41730;51.960;20.158;2023-04-08T10:49:59;9.30;;;7.40;;
55800;SDS011;41730;51.960;20.158;2023-04-08T10:52:45;9.80;;;7.20;;
55800;SDS011;41730;51.960;20.158;2023-04-08T10:55:15;9.90;;;7.30;;
55800;SDS011;41730;51.960;20.158;2023-04-08T10:57:48;8.90;;;6.90;;
55800;SDS011;41730;51.960;20.158;2023-04-08T11:00:18;11.10;;;7.10;;
55800;SDS011;41730;51.960;20.158;2023-04-08T11:02:59;9.70;;;7.30;;
55800;SDS011;41730;51.960;20.158;2023-04-08T11:05:29;10.00;;;7.00;;
55800;SDS011;41730;51.960;20.158;2023-04-08T11:07:59;8.70;;;6.80;;
55800;SDS011;41730;51.960;20.158;2023-04-08T11:10:28;9.20;;;6.30;;
55800;SDS011;41730;51.960;20.158;2023-04-08T11:12:58;9.00;;;6.20;;
55800;SDS011;41730;51.960;20.158;2023-04-08T11:15:28;8.70;;;6.60;;
55800;SDS011;41730;51.960;20.158;2023-04-08T11:17:58;8.80;;;6.50;;
55800;SDS011;41730;51.960;20.158;2023-04-08T11:20:29;9.00;;;6.10;;
55800;SDS011;41730;51.960;20.158;2023-04-08T11:23:01;11.10;;;6.90;;
55800;SDS011;41730;51.960;20.158;2023-04-08T11:25:36;10.00;;;7.30;;
55800;SDS011;41730;51.960;20.158;2023-04-08T11:28:16;11.70;;;7.60;;
55800;SDS011;41730;51.960;20.158;2023-04-08T11:30:49;10.20;;;6.50;;
55800;SDS011;41730;51.960;20.158;2023-04-08T11:33:24;9.80;;;6.50;;
55800;SDS011;41730;51.960;20.158;2023-04-08T11:35:53;11.40;;;6.50;;
55800;SDS011;41730;51.960;20.158;2023-04-08T11:38:23;9.20;;;6.10;;
55800;SDS011;41730;51.960;20.158;2023-04-08T11:40:53;9.30;;;6.50;;
55800;SDS011;41730;51.960;20.158;2023-04-08T11:43:27;9.60;;;6.60;;
55800;SDS011;41730;51.960;20.158;2023-04-08T11:49:21;9.50;;;6.10;;
55800;SDS011;41730;51.960;20.158;2023-04-08T11:51:55;8.10;;;5.60;;
55800;SDS011;41730;51.960;20.158;2023-04-08T11:54:26;8.10;;;5.80;;
55800;SDS011;41730;51.960;20.158;2023-04-08T11:57:09;8.70;;;5.80;;
55800;SDS011;41730;51.960;20.158;2023-04-08T11:59:49;9.40;;;6.40;;
55800;SDS011;41730;51.960;20.158;2023-04-08T12:02:27;8.50;;;5.70;;
55800;SDS011;41730;51.960;20.158;2023-04-08T12:04:59;8.50;;;6.20;;
55800;SDS011;41730;51.960;20.158;2023-04-08T12:07:28;7.50;;;5.40;;
55800;SDS011;41730;51.960;20.158;2023-04-08T12:09:58;9.30;;;5.80;;
55800;SDS011;41730;51.960;20.158;2023-04-08T12:12:27;8.50;;;5.30;;
55800;SDS011;41730;51.960;20.158;2023-04-08T12:14:58;8.90;;;5.70;;
55800;SDS011;41730;51.960;20.158;2023-04-08T12:17:28;8.10;;;6.10;;
55800;SDS011;41730;51.960;20.158;2023-04-08T12:19:57;7.90;;;5.60;;
55800;SDS011;41730;51.960;20.158;2023-04-08T12:22:27;7.80;;;5.60;;
55800;SDS011;41730;51.960;20.158;2023-04-08T12:24:59;8.10;;;5.10;;
55800;SDS011;41730;51.960;20.158;2023-04-08T12:27:57;8.30;;;5.50;;
55800;SDS011;41730;51.960;20.158;2023-04-08T12:31:14;8.90;;;5.90;;
55800;SDS011;41730;51.960;20.158;2023-04-08T12:34:02;7.50;;;5.20;;
55800;SDS011;41730;51.960;20.158;2023-04-08T12:37:00;7.60;;;5.60;;
55800;SDS011;41730;51.960;20.158;2023-04-08T12:40:03;7.80;;;5.90;;
55800;SDS011;41730;51.960;20.158;2023-04-08T12:42:52;6.90;;;5.80;;
55800;SDS011;41730;51.960;20.158;2023-04-08T12:45:31;8.50;;;5.90;;
55800;SDS011;41730;51.960;20.158;2023-04-08T12:48:05;8.70;;;6.10;;
55800;SDS011;41730;51.960;20.158;2023-04-08T12:50:49;10.20;;;6.40;;
55800;SDS011;41730;51.960;20.158;2023-04-08T12:53:33;9.30;;;6.50;;
55800;SDS011;41730;51.960;20.158;2023-04-08T12:56:34;8.80;;;6.20;;
55800;SDS011;41730;51.960;20.158;2023-04-08T12:59:16;10.30;;;6.90;;
55800;SDS011;41730;51.960;20.158;2023-04-08T13:02:16;9.90;;;6.90;;
55800;SDS011;41730;51.960;20.158;2023-04-08T13:05:05;8.80;;;6.30;;
55800;SDS011;41730;51.960;20.158;2023-04-08T13:08:01;10.20;;;6.50;;
55800;SDS011;41730;51.960;20.158;2023-04-08T13:10:40;9.20;;;5.80;;
55800;SDS011;41730;51.960;20.158;2023-04-08T13:18:54;8.80;;;6.30;;
55800;SDS011;41730;51.960;20.158;2023-04-08T13:21:29;9.10;;;6.40;;
55800;SDS011;41730;51.960;20.158;2023-04-08T13:24:13;10.40;;;6.80;;
55800;SDS011;41730;51.960;20.158;2023-04-08T13:26:44;9.60;;;7.00;;
55800;SDS011;41730;51.960;20.158;2023-04-08T13:29:15;12.20;;;6.40;;
55800;SDS011;41730;51.960;20.158;2023-04-08T13:31:44;9.50;;;6.60;;
55800;SDS011;41730;51.960;20.158;2023-04-08T13:34:15;10.20;;;5.70;;
55800;SDS011;41730;51.960;20.158;2023-04-08T13:36:46;9.20;;;5.80;;
55800;SDS011;41730;51.960;20.158;2023-04-08T13:39:21;8.30;;;6.10;;
55800;SDS011;41730;51.960;20.158;2023-04-08T13:41:55;9.70;;;6.60;;
55800;SDS011;41730;51.960;20.158;2023-04-08T13:47:34;9.50;;;6.40;;
55800;SDS011;41730;51.960;20.158;2023-04-08T13:53:24;12.20;;;7.00;;
55800;SDS011;41730;51.960;20.158;2023-04-08T13:56:31;9.60;;;6.80;;
55800;SDS011;41730;51.960;20.158;2023-04-08T13:59:05;7.80;;;5.80;;
55800;SDS011;41730;51.960;20.158;2023-04-08T14:01:53;8.80;;;6.10;;
55800;SDS011;41730;51.960;20.158;2023-04-08T14:04:28;9.00;;;6.40;;
55800;SDS011;41730;51.960;20.158;2023-04-08T14:06:59;8.20;;;6.20;;
55800;SDS011;41730;51.960;20.158;2023-04-08T14:13:02;8.80;;;6.00;;
55800;SDS011;41730;51.960;20.158;2023-04-08T14:15:31;9.70;;;6.50;;
55800;SDS011;41730;51.960;20.158;2023-04-08T14:18:05;8.00;;;6.20;;
55800;SDS011;41730;51.960;20.158;2023-04-08T14:20:48;9.40;;;6.60;;
55800;SDS011;41730;51.960;20.158;2023-04-08T14:23:18;10.10;;;6.80;;
55800;SDS011;41730;51.960;20.158;2023-04-08T14:25:48;10.30;;;5.70;;
55800;SDS011;41730;51.960;20.158;2023-04-08T14:28:18;8.10;;;5.50;;
55800;SDS011;41730;51.960;20.158;2023-04-08T14:30:47;8.50;;;6.00;;
55800;SDS011;41730;51.960;20.158;2023-04-08T14:33:16;7.90;;;5.60;;
55800;SDS011;41730;51.960;20.158;2023-04-08T14:35:52;7.80;;;5.50;;
55800;SDS011;41730;51.960;20.158;2023-04-08T14:38:21;8.10;;;5.40;;
55800;SDS011;41730;51.960;20.158;2023-04-08T14:40:52;7.30;;;5.30;;
55800;SDS011;41730;51.960;20.158;2023-04-08T14:43:23;7.20;;;5.10;;
55800;SDS011;41730;51.960;20.158;2023-04-08T14:45:52;9.90;;;6.50;;
55800;SDS011;41730;51.960;20.158;2023-04-08T14:48:21;7.30;;;4.90;;
55800;SDS011;41730;51.960;20.158;2023-04-08T14:50:52;7.60;;;5.20;;
55800;SDS011;41730;51.960;20.158;2023-04-08T14:53:21;8.50;;;5.60;;
55800;SDS011;41730;51.960;20.158;2023-04-08T14:55:50;8.90;;;6.40;;
55800;SDS011;41730;51.960;20.158;2023-04-08T14:58:19;9.80;;;6.40;;
55800;SDS011;41730;51.960;20.158;2023-04-08T15:00:49;8.80;;;6.30;;
55800;SDS011;41730;51.960;20.158;2023-04-08T15:03:18;9.60;;;6.30;;
55800;SDS011;41730;51.960;20.158;2023-04-08T15:05:52;9.20;;;6.40;;
55800;SDS011;41730;51.960;20.158;2023-04-08T15:08:24;9.60;;;6.30;;
55800;SDS011;41730;51.960;20.158;2023-04-08T15:10:54;8.20;;;6.20;;
55800;SDS011;41730;51.960;20.158;2023-04-08T15:13:27;8.20;;;6.30;;
55800;SDS011;41730;51.960;20.158;2023-04-08T15:16:00;9.80;;;6.20;;
55800;SDS011;41730;51.960;20.158;2023-04-08T15:18:29;9.40;;;6.40;;
55800;SDS011;41730;51.960;20.158;2023-04-08T15:20:59;8.60;;;5.80;;